Chicago, Illinois
Traffic Map
Current Weather Conditions
Chicago, Illinois
Few Clouds
Few Clouds
19°
Feels Like: 19°
Wind Chill: 19° Ceiling: Unl
Heat Index: 19° Visibility: 10mi
Dew Point: Wind: 10mph
Humidity: 37% Direction: 310° (NW)
Pressure: 30.09in Gusts: 0mph
Raw Report DataKMDW 162251Z 31009KT 10SM FEW049 19/04 A3009 RMK AO2 SLP189 T01940044
Traffic Incident Summary
Active as of:
Severity:
Category:
InformationThere was an issue retrieving the traffic information for this location. Please try a different location or try again shortly.
Advertisements
Track Severe Weather on mobile